createdAt,value
2018-11-03T00:01:01.663Z,11.23
2018-11-03T00:03:30.902Z,11.25
2018-11-03T00:06:00.014Z,11.25
2018-11-03T00:08:29.113Z,11.22
2018-11-03T00:10:58.302Z,11.23
2018-11-03T00:13:27.510Z,11.25
2018-11-03T00:15:56.892Z,11.22
2018-11-03T00:18:26.195Z,11.19
2018-11-03T00:20:55.509Z,11.19
2018-11-03T00:23:24.686Z,11.20
2018-11-03T00:25:53.779Z,11.19
2018-11-03T00:28:22.855Z,11.23
2018-11-03T00:30:52.086Z,11.19
2018-11-03T00:33:21.314Z,11.20
2018-11-03T00:35:50.623Z,11.13
2018-11-03T00:38:19.902Z,11.14
2018-11-03T00:40:49.286Z,11.11
2018-11-03T00:43:18.500Z,11.08
2018-11-03T00:45:48.631Z,11.02
2018-11-03T00:48:17.864Z,10.99
2018-11-03T00:50:46.931Z,10.93
2018-11-03T00:53:16.202Z,10.90
2018-11-03T00:55:45.258Z,10.90
2018-11-03T00:58:14.507Z,10.86
2018-11-03T01:00:43.707Z,10.85
2018-11-03T01:03:12.938Z,10.84
2018-11-03T01:05:42.173Z,10.77
2018-11-03T01:08:11.352Z,10.80
2018-11-03T01:10:40.934Z,10.69
2018-11-03T01:13:10.039Z,10.59
2018-11-03T01:15:39.433Z,10.66
2018-11-03T01:18:08.524Z,10.66
2018-11-03T01:20:37.731Z,10.57
2018-11-03T01:23:07.109Z,10.61
2018-11-03T01:25:36.339Z,10.57
2018-11-03T01:28:05.477Z,10.51
2018-11-03T01:30:34.738Z,10.56
2018-11-03T01:33:04.006Z,10.51
2018-11-03T01:35:33.230Z,10.53
2018-11-03T01:38:02.351Z,10.50
2018-11-03T01:40:31.558Z,10.55
2018-11-03T01:43:00.739Z,10.56
2018-11-03T01:45:29.854Z,10.59
2018-11-03T01:47:59.042Z,10.66
2018-11-03T01:50:28.170Z,10.73
2018-11-03T01:52:57.290Z,10.72
2018-11-03T01:55:26.435Z,10.74
2018-11-03T01:57:55.719Z,10.73
2018-11-03T02:00:24.821Z,10.72
2018-11-03T02:02:54.266Z,10.68
2018-11-03T02:05:23.332Z,10.69
2018-11-03T02:07:52.562Z,10.59
2018-11-03T02:10:21.898Z,10.58
2018-11-03T02:12:51.687Z,10.53
2018-11-03T02:15:20.966Z,10.49
2018-11-03T02:17:50.036Z,10.49
2018-11-03T02:20:19.240Z,10.52
2018-11-03T02:22:48.327Z,10.49
2018-11-03T02:25:17.542Z,10.49
2018-11-03T02:27:46.957Z,10.52
2018-11-03T02:30:16.126Z,10.54
2018-11-03T02:32:45.298Z,10.54
2018-11-03T02:35:14.516Z,10.54
2018-11-03T02:37:43.711Z,10.52
2018-11-03T02:40:13.666Z,10.45
2018-11-03T02:42:43.238Z,10.40
2018-11-03T02:45:12.675Z,10.38
2018-11-03T02:47:42.411Z,10.33
2018-11-03T02:50:13.476Z,10.36
2018-11-03T02:52:43.112Z,10.34
2018-11-03T02:55:12.248Z,10.35
2018-11-03T02:57:41.355Z,10.38
2018-11-03T03:00:11.532Z,10.37
2018-11-03T03:02:40.883Z,10.32
2018-11-03T03:05:11.035Z,10.28
2018-11-03T03:07:40.411Z,10.27
2018-11-03T03:10:11.056Z,10.31
2018-11-03T03:12:40.355Z,10.29
2018-11-03T03:15:11.248Z,10.21
2018-11-03T03:17:40.951Z,10.21
2018-11-03T03:20:11.315Z,10.22
2018-11-03T03:22:40.417Z,10.19
2018-11-03T03:25:10.397Z,10.15
2018-11-03T03:27:39.467Z,10.11
2018-11-03T03:30:09.572Z,10.14
2018-11-03T03:32:38.720Z,10.10
2018-11-03T03:35:08.138Z,10.08
2018-11-03T03:37:37.210Z,10.09
2018-11-03T03:40:07.424Z,10.05
2018-11-03T03:42:36.579Z,10.05
2018-11-03T03:45:06.259Z,10.09
2018-11-03T03:47:35.303Z,10.08
2018-11-03T03:50:04.557Z,10.04
2018-11-03T03:52:33.802Z,10.03
2018-11-03T03:55:03.208Z,10.00
2018-11-03T03:57:32.542Z,10.02
2018-11-03T04:00:01.649Z,10.03
2018-11-03T04:02:30.835Z,10.03
2018-11-03T04:04:59.939Z,9.92
2018-11-03T04:07:29.103Z,9.91
2018-11-03T04:09:58.132Z,9.92
2018-11-03T04:12:27.136Z,9.89
2018-11-03T04:14:56.276Z,9.88
2018-11-03T04:17:25.616Z,9.82
2018-11-03T04:19:55.066Z,9.83
2018-11-03T04:22:24.818Z,9.85
2018-11-03T04:24:53.875Z,9.76
2018-11-03T04:27:22.933Z,9.72
2018-11-03T04:29:52.349Z,9.69
2018-11-03T04:32:21.971Z,9.72
2018-11-03T04:34:50.949Z,9.73
2018-11-03T04:37:20.131Z,9.70
2018-11-03T04:39:49.307Z,9.73
2018-11-03T04:42:18.521Z,9.70
2018-11-03T04:44:48.097Z,9.75
2018-11-03T04:47:17.247Z,9.78
2018-11-03T04:49:46.634Z,9.72
2018-11-03T04:52:15.743Z,9.71
2018-11-03T04:54:44.936Z,9.64
2018-11-03T04:57:14.150Z,9.61
2018-11-03T04:59:43.453Z,9.62
2018-11-03T05:02:12.838Z,9.68
2018-11-03T05:04:42.022Z,9.55
2018-11-03T05:07:11.317Z,9.57
2018-11-03T05:09:40.718Z,9.58
2018-11-03T05:12:09.889Z,9.57
2018-11-03T05:14:39.118Z,9.64
2018-11-03T05:17:08.588Z,9.63
2018-11-03T05:19:37.754Z,9.69
2018-11-03T05:22:07.283Z,9.70
2018-11-03T05:24:36.470Z,9.85
2018-11-03T05:27:05.753Z,9.91
2018-11-03T05:29:34.872Z,10.09
2018-11-03T05:32:04.146Z,10.26
2018-11-03T05:34:33.382Z,10.27
2018-11-03T05:37:02.650Z,10.30
2018-11-03T05:39:31.936Z,10.32
2018-11-03T05:42:01.043Z,10.48
2018-11-03T05:44:30.166Z,10.70
2018-11-03T05:46:59.328Z,10.91
2018-11-03T05:49:28.451Z,11.14
2018-11-03T05:51:57.635Z,11.18
2018-11-03T05:54:26.823Z,11.24
2018-11-03T05:56:56.056Z,11.38
2018-11-03T05:59:25.418Z,11.66
2018-11-03T06:01:54.655Z,11.81
2018-11-03T06:04:23.787Z,12.12
2018-11-03T06:06:52.843Z,12.48
2018-11-03T06:09:22.134Z,12.67
2018-11-03T06:11:51.562Z,12.47
2018-11-03T06:14:20.846Z,12.58
2018-11-03T06:16:49.914Z,12.69
2018-11-03T06:19:19.968Z,12.74
2018-11-03T06:21:49.329Z,12.66
2018-11-03T06:24:18.447Z,12.42
2018-11-03T06:26:47.701Z,12.43
2018-11-03T06:29:16.894Z,12.45
2018-11-03T06:31:45.878Z,12.72
2018-11-03T06:34:15.019Z,12.79
2018-11-03T06:36:44.282Z,13.09
2018-11-03T06:39:14.209Z,13.54
2018-11-03T06:41:43.569Z,13.82
2018-11-03T06:44:12.856Z,14.14
2018-11-03T06:46:42.255Z,14.43
2018-11-03T06:49:16.446Z,14.77
2018-11-03T06:51:46.434Z,15.13
2018-11-03T06:54:16.061Z,15.49
2018-11-03T06:56:46.048Z,15.62
2018-11-03T06:59:15.534Z,15.58
2018-11-03T07:01:44.655Z,15.46
2018-11-03T07:04:13.830Z,15.55
2018-11-03T07:06:43.044Z,15.74
2018-11-03T07:09:12.979Z,16.20
2018-11-03T07:11:42.612Z,16.07
2018-11-03T07:14:11.499Z,16.23
2018-11-03T07:16:40.650Z,16.08
2018-11-03T07:19:09.753Z,15.51
2018-11-03T07:21:39.111Z,15.04
2018-11-03T07:24:08.363Z,14.71
2018-11-03T07:26:37.634Z,14.96
2018-11-03T07:29:06.799Z,14.48
2018-11-03T07:31:35.863Z,14.59
2018-11-03T07:34:04.964Z,14.24
2018-11-03T07:36:34.151Z,14.46
2018-11-03T07:39:03.579Z,14.84
2018-11-03T07:41:32.636Z,14.81
2018-11-03T07:44:02.979Z,14.71
2018-11-03T07:46:32.074Z,14.75
2018-11-03T07:49:01.745Z,14.63
2018-11-03T07:51:30.650Z,15.02
2018-11-03T07:53:59.750Z,14.58
2018-11-03T07:56:29.316Z,14.92
2018-11-03T07:58:58.658Z,15.05
2018-11-03T08:01:27.963Z,15.09
2018-11-03T08:03:57.114Z,15.18
2018-11-03T08:06:26.706Z,14.63
2018-11-03T08:08:56.010Z,14.88
2018-11-03T08:11:25.103Z,14.52
2018-11-03T08:13:54.302Z,14.53
2018-11-03T08:16:23.458Z,14.70
2018-11-03T08:18:52.793Z,14.79
2018-11-03T08:21:22.031Z,14.86
2018-11-03T08:23:52.127Z,15.03
2018-11-03T08:26:21.189Z,15.40
2018-11-03T08:28:50.398Z,15.54
2018-11-03T08:31:19.733Z,15.69
2018-11-03T08:33:48.905Z,15.99
2018-11-03T08:36:18.099Z,15.89
2018-11-03T08:38:47.308Z,15.64
2018-11-03T08:41:16.859Z,15.82
2018-11-03T08:43:45.911Z,15.79
2018-11-03T08:46:15.181Z,15.94
2018-11-03T08:48:44.291Z,15.88
2018-11-03T08:51:13.359Z,15.77
2018-11-03T08:53:42.587Z,15.44
2018-11-03T08:56:11.585Z,15.68
2018-11-03T08:58:40.790Z,15.80
2018-11-03T09:01:09.893Z,15.47
2018-11-03T09:03:38.991Z,15.61
2018-11-03T09:06:08.323Z,15.52
2018-11-03T09:08:37.446Z,15.46
2018-11-03T09:11:06.602Z,15.89
2018-11-03T09:13:36.218Z,15.97
2018-11-03T09:16:05.397Z,15.91
2018-11-03T09:18:34.583Z,16.05
2018-11-03T09:21:04.042Z,16.40
2018-11-03T09:23:33.307Z,16.42
2018-11-03T09:26:02.583Z,16.62
2018-11-03T09:28:31.634Z,16.60
2018-11-03T09:31:01.463Z,16.72
2018-11-03T09:33:30.578Z,16.91
2018-11-03T09:35:59.851Z,16.81
2018-11-03T09:38:29.146Z,16.92
2018-11-03T09:40:58.494Z,17.06
2018-11-03T09:43:28.235Z,17.15
2018-11-03T09:45:57.336Z,17.12
2018-11-03T09:48:26.555Z,17.15
2018-11-03T09:50:55.845Z,17.28
2018-11-03T09:53:25.227Z,17.43
2018-11-03T09:55:54.510Z,17.47
2018-11-03T09:58:23.882Z,17.54
2018-11-03T10:00:53.120Z,17.65
2018-11-03T10:03:22.421Z,17.64
2018-11-03T10:05:51.862Z,17.67
2018-11-03T10:08:21.017Z,17.79
2018-11-03T10:10:50.236Z,17.86
2018-11-03T10:13:19.532Z,17.68
2018-11-03T10:15:48.674Z,17.89
2018-11-03T10:18:17.951Z,17.91
2018-11-03T10:20:47.710Z,18.08
2018-11-03T10:23:17.010Z,18.12
2018-11-03T10:25:46.362Z,18.48
2018-11-03T10:28:15.759Z,18.45
2018-11-03T10:30:45.030Z,18.38
2018-11-03T10:33:14.283Z,18.22
2018-11-03T10:35:43.683Z,18.11
2018-11-03T10:38:13.008Z,18.39
2018-11-03T10:40:42.169Z,18.57
2018-11-03T10:43:11.614Z,18.81
2018-11-03T10:45:40.942Z,19.01
2018-11-03T10:48:10.704Z,18.95
2018-11-03T10:50:40.038Z,18.86
2018-11-03T10:53:09.462Z,18.93
2018-11-03T10:55:38.672Z,18.87
2018-11-03T10:58:08.007Z,19.00
2018-11-03T11:00:42.095Z,19.12
2018-11-03T11:03:16.767Z,19.30
2018-11-03T11:05:51.195Z,19.48
2018-11-03T11:08:25.887Z,19.55
2018-11-03T11:11:00.139Z,19.43
2018-11-03T11:13:31.067Z,19.43
2018-11-03T11:16:00.270Z,19.56
2018-11-03T11:18:29.522Z,19.49
2018-11-03T11:20:59.062Z,19.55
2018-11-03T11:23:28.432Z,19.75
2018-11-03T11:25:57.470Z,19.81
2018-11-03T11:28:27.110Z,19.98
2018-11-03T11:30:56.235Z,20.17
2018-11-03T11:33:25.331Z,20.36
2018-11-03T11:35:54.787Z,20.60
2018-11-03T11:38:23.795Z,20.57
2018-11-03T11:40:52.941Z,20.97
2018-11-03T11:43:22.243Z,21.07
2018-11-03T11:45:51.391Z,21.25
2018-11-03T11:48:20.443Z,21.47
2018-11-03T11:50:50.402Z,21.50
2018-11-03T11:53:19.675Z,21.65
2018-11-03T11:55:48.962Z,21.80
2018-11-03T11:58:18.304Z,21.72
2018-11-03T12:00:47.568Z,21.73
2018-11-03T12:03:16.574Z,21.82
2018-11-03T12:05:45.975Z,21.83
2018-11-03T12:08:16.087Z,22.04
2018-11-03T12:10:45.291Z,22.13
2018-11-03T12:13:14.861Z,22.13
2018-11-03T12:15:44.063Z,22.06
2018-11-03T12:18:13.289Z,22.09
2018-11-03T12:20:42.646Z,22.27
2018-11-03T12:23:11.595Z,22.31
2018-11-03T12:25:40.926Z,22.42
2018-11-03T12:28:10.082Z,22.31
2018-11-03T12:30:39.234Z,22.37
2018-11-03T12:33:08.305Z,22.38
2018-11-03T12:35:37.746Z,22.20
2018-11-03T12:38:07.163Z,22.19
2018-11-03T12:40:36.267Z,22.22
2018-11-03T12:43:05.534Z,22.12
2018-11-03T12:45:34.714Z,22.23
2018-11-03T12:48:04.020Z,22.24
2018-11-03T12:50:33.289Z,22.15
2018-11-03T12:53:02.484Z,22.19
2018-11-03T12:55:32.007Z,22.11
2018-11-03T12:58:01.079Z,21.99
2018-11-03T13:00:30.189Z,21.96
2018-11-03T13:02:59.618Z,22.07
2018-11-03T13:05:28.901Z,22.06
2018-11-03T13:07:58.099Z,21.95
2018-11-03T13:10:27.402Z,22.05
2018-11-03T13:12:56.521Z,22.06
2018-11-03T13:15:25.710Z,22.05
2018-11-03T13:17:55.225Z,22.10
2018-11-03T13:20:24.277Z,21.98
2018-11-03T13:22:53.433Z,22.01
2018-11-03T13:25:22.840Z,22.00
2018-11-03T13:27:52.068Z,21.83
2018-11-03T13:30:21.295Z,21.79
2018-11-03T13:32:50.912Z,21.76
2018-11-03T13:35:20.192Z,21.76
2018-11-03T13:37:49.216Z,21.66
2018-11-03T13:40:18.688Z,21.71
2018-11-03T13:42:47.905Z,21.68
2018-11-03T13:45:17.043Z,21.64
2018-11-03T13:47:46.794Z,21.54
2018-11-03T13:50:17.034Z,21.50
2018-11-03T13:52:47.346Z,21.42
2018-11-03T13:55:16.892Z,21.32
2018-11-03T13:57:46.826Z,21.24
2018-11-03T14:00:17.883Z,21.18
2018-11-03T14:02:47.878Z,21.12
2018-11-03T14:05:17.118Z,21.06
2018-11-03T14:07:46.350Z,21.01
2018-11-03T14:10:16.539Z,20.93
2018-11-03T14:12:46.652Z,20.78
2018-11-03T14:15:17.137Z,20.80
2018-11-03T14:17:46.350Z,20.68
2018-11-03T14:20:16.321Z,20.57
2018-11-03T14:22:46.083Z,20.37
2018-11-03T14:25:17.529Z,20.25
2018-11-03T14:27:47.484Z,20.18
2018-11-03T14:30:16.846Z,20.06
2018-11-03T14:32:46.135Z,19.96
2018-11-03T14:35:15.888Z,19.87
2018-11-03T14:37:44.922Z,19.77
2018-11-03T14:40:15.750Z,19.69
2018-11-03T14:42:45.358Z,19.59
2018-11-03T14:45:15.452Z,19.54
2018-11-03T14:47:44.622Z,19.47
2018-11-03T14:50:13.787Z,19.33
2018-11-03T14:52:43.698Z,19.26
2018-11-03T14:55:13.564Z,19.15
2018-11-03T14:57:42.802Z,19.09
2018-11-03T15:00:14.199Z,18.96
2018-11-03T15:02:43.460Z,18.88
2018-11-03T15:05:13.233Z,18.75
2018-11-03T15:07:42.308Z,18.63
2018-11-03T15:10:12.502Z,18.47
2018-11-03T15:12:42.764Z,18.34
2018-11-03T15:15:13.407Z,18.27
2018-11-03T15:17:42.766Z,18.05
2018-11-03T15:20:12.377Z,17.95
2018-11-03T15:22:42.354Z,17.88
2018-11-03T15:25:11.425Z,17.76
2018-11-03T15:27:41.037Z,17.66
2018-11-03T15:30:11.703Z,17.59
2018-11-03T15:32:41.327Z,17.50
2018-11-03T15:35:11.260Z,17.43
2018-11-03T15:37:40.779Z,17.32
2018-11-03T15:40:11.784Z,17.21
2018-11-03T15:42:40.906Z,17.18
2018-11-03T15:45:13.593Z,17.09
2018-11-03T15:47:43.354Z,16.93
2018-11-03T15:50:13.310Z,16.84
2018-11-03T15:52:42.976Z,16.73
2018-11-03T15:55:12.076Z,16.64
2018-11-03T15:57:41.960Z,16.58
2018-11-03T16:00:14.227Z,16.45
2018-11-03T16:02:43.340Z,16.32
2018-11-03T16:05:12.460Z,16.27
2018-11-03T16:07:41.874Z,16.27
2018-11-03T16:10:11.484Z,16.15
2018-11-03T16:12:40.996Z,16.15
2018-11-03T16:15:11.468Z,16.08
2018-11-03T16:17:41.370Z,16.01
2018-11-03T16:20:11.700Z,15.95
2018-11-03T16:22:41.457Z,15.91
2018-11-03T16:25:10.699Z,15.82
2018-11-03T16:27:40.206Z,15.65
2018-11-03T16:30:11.603Z,15.55
2018-11-03T16:32:41.079Z,15.45
2018-11-03T16:35:09.963Z,15.34
2018-11-03T16:37:39.507Z,15.26
2018-11-03T16:40:10.151Z,15.17
2018-11-03T16:42:39.405Z,15.15
2018-11-03T16:45:10.411Z,15.09
2018-11-03T16:47:39.566Z,15.05
2018-11-03T16:50:09.991Z,14.99
2018-11-03T16:52:39.705Z,14.93
2018-11-03T16:55:09.395Z,14.96
2018-11-03T16:57:38.990Z,14.89
2018-11-03T17:00:10.301Z,14.86
2018-11-03T17:02:39.582Z,14.85
2018-11-03T17:05:10.006Z,14.79
2018-11-03T17:07:39.547Z,14.80
2018-11-03T17:10:11.041Z,14.78
2018-11-03T17:12:41.476Z,14.74
2018-11-03T17:15:11.222Z,14.72
2018-11-03T17:17:40.450Z,14.65
2018-11-03T17:20:10.398Z,14.60
2018-11-03T17:22:39.597Z,14.51
2018-11-03T17:25:10.249Z,14.47
2018-11-03T17:27:39.617Z,14.42
2018-11-03T17:30:10.453Z,14.34
2018-11-03T17:32:39.772Z,14.24
2018-11-03T17:35:09.251Z,14.16
2018-11-03T17:37:38.558Z,14.02
2018-11-03T17:40:08.843Z,13.92
2018-11-03T17:42:38.398Z,13.80
2018-11-03T17:45:08.535Z,13.67
2018-11-03T17:47:37.859Z,13.62
2018-11-03T17:50:08.403Z,13.54
2018-11-03T17:52:37.583Z,13.42
2018-11-03T17:55:07.352Z,13.35
2018-11-03T17:57:36.996Z,13.26
2018-11-03T18:00:09.179Z,13.14
2018-11-03T18:02:38.491Z,13.09
2018-11-03T18:05:07.533Z,12.91
2018-11-03T18:07:36.487Z,12.84
2018-11-03T18:10:06.199Z,12.66
2018-11-03T18:12:35.557Z,12.53
2018-11-03T18:15:04.958Z,12.34
2018-11-03T18:17:34.395Z,12.20
2018-11-03T18:20:03.791Z,12.07
2018-11-03T18:22:33.082Z,12.03
2018-11-03T18:25:02.763Z,11.90
2018-11-03T18:27:31.894Z,11.82
2018-11-03T18:30:01.053Z,11.60
2018-11-03T18:32:30.562Z,11.62
2018-11-03T18:34:59.893Z,11.54
2018-11-03T18:37:29.075Z,11.39
2018-11-03T18:39:58.552Z,11.35
2018-11-03T18:42:27.610Z,11.29
2018-11-03T18:44:56.899Z,11.22
2018-11-03T18:47:26.310Z,11.18
2018-11-03T18:49:55.421Z,11.16
2018-11-03T18:52:24.594Z,11.12
2018-11-03T18:54:54.158Z,11.07
2018-11-03T18:57:23.303Z,11.07
2018-11-03T18:59:53.115Z,10.99
2018-11-03T19:02:23.475Z,10.95
2018-11-03T19:04:52.718Z,10.94
2018-11-03T19:07:21.869Z,10.85
2018-11-03T19:09:51.333Z,10.82
2018-11-03T19:12:20.446Z,10.81
2018-11-03T19:14:49.619Z,10.74
2018-11-03T19:17:18.886Z,10.71
2018-11-03T19:19:47.998Z,10.69
2018-11-03T19:22:17.110Z,10.69
2018-11-03T19:24:46.547Z,10.64
2018-11-03T19:27:15.647Z,10.61
2018-11-03T19:29:44.881Z,10.51
2018-11-03T19:32:14.465Z,10.48
2018-11-03T19:34:43.746Z,10.47
2018-11-03T19:37:13.063Z,10.43
2018-11-03T19:39:42.307Z,10.43
2018-11-03T19:42:11.458Z,10.36
2018-11-03T19:44:40.829Z,10.33
2018-11-03T19:47:10.117Z,10.31
2018-11-03T19:49:39.428Z,10.28
2018-11-03T19:52:08.653Z,10.22
2018-11-03T19:54:38.175Z,10.16
2018-11-03T19:57:07.294Z,10.11
2018-11-03T19:59:36.455Z,10.11
2018-11-03T20:02:05.822Z,10.05
2018-11-03T20:04:35.369Z,10.02
2018-11-03T20:07:04.634Z,9.94
2018-11-03T20:09:33.870Z,9.95
2018-11-03T20:12:03.301Z,9.92
2018-11-03T20:14:32.551Z,9.89
2018-11-03T20:17:01.907Z,9.87
2018-11-03T20:19:30.975Z,9.88
2018-11-03T20:22:00.162Z,9.84
2018-11-03T20:24:29.742Z,9.85
2018-11-03T20:26:58.896Z,9.78
2018-11-03T20:29:28.092Z,9.79
2018-11-03T20:31:57.751Z,9.76
2018-11-03T20:34:26.817Z,9.73
2018-11-03T20:36:56.059Z,9.74
2018-11-03T20:39:25.463Z,9.76
2018-11-03T20:41:54.797Z,9.72
2018-11-03T20:44:23.879Z,9.72
2018-11-03T20:46:53.370Z,9.67
2018-11-03T20:49:22.554Z,9.67
2018-11-03T20:51:51.754Z,9.58
2018-11-03T20:54:21.304Z,9.66
2018-11-03T20:56:50.589Z,9.61
2018-11-03T20:59:19.609Z,9.61
2018-11-03T21:01:49.106Z,9.56
2018-11-03T21:04:18.442Z,9.57
2018-11-03T21:06:47.574Z,9.54
2018-11-03T21:09:17.224Z,9.53
2018-11-03T21:11:46.313Z,9.51
2018-11-03T21:14:15.602Z,9.52
2018-11-03T21:16:44.931Z,9.48
2018-11-03T21:19:14.206Z,9.50
2018-11-03T21:21:43.337Z,9.48
2018-11-03T21:24:12.721Z,9.45
2018-11-03T21:26:42.205Z,9.51
2018-11-03T21:29:11.291Z,9.44
2018-11-03T21:31:40.543Z,9.49
2018-11-03T21:34:09.676Z,9.40
2018-11-03T21:36:38.897Z,9.42
2018-11-03T21:39:09.928Z,9.42
2018-11-03T21:41:39.145Z,9.41
2018-11-03T21:44:08.427Z,9.40
2018-11-03T21:46:37.875Z,9.35
2018-11-03T21:49:07.244Z,9.35
2018-11-03T21:51:36.418Z,9.46
2018-11-03T21:54:06.027Z,9.40
2018-11-03T21:56:35.174Z,9.32
2018-11-03T21:59:04.460Z,9.32
2018-11-03T22:01:33.551Z,9.36
2018-11-03T22:04:02.755Z,9.35
2018-11-03T22:06:31.949Z,9.36
2018-11-03T22:09:01.730Z,9.33
2018-11-03T22:11:30.838Z,9.39
2018-11-03T22:13:59.874Z,9.35
2018-11-03T22:16:29.950Z,9.34
2018-11-03T22:18:59.229Z,9.30
2018-11-03T22:21:28.711Z,9.30
2018-11-03T22:23:58.208Z,9.23
2018-11-03T22:26:27.479Z,9.26
2018-11-03T22:28:56.938Z,9.27
2018-11-03T22:31:26.271Z,9.34
2018-11-03T22:33:55.381Z,9.36
2018-11-03T22:36:24.407Z,9.36
2018-11-03T22:38:53.758Z,9.43
2018-11-03T22:41:22.796Z,9.45
2018-11-03T22:43:51.967Z,9.41
2018-11-03T22:46:21.238Z,9.45
2018-11-03T22:48:50.497Z,9.47
2018-11-03T22:51:19.729Z,9.49
2018-11-03T22:53:49.218Z,9.49
2018-11-03T22:56:18.496Z,9.46
2018-11-03T22:58:47.407Z,9.50
2018-11-03T23:01:16.739Z,9.47
2018-11-03T23:03:45.976Z,9.49
2018-11-03T23:06:15.162Z,9.53
2018-11-03T23:08:44.275Z,9.54
2018-11-03T23:11:13.572Z,9.56
2018-11-03T23:13:42.915Z,9.55
2018-11-03T23:16:12.438Z,9.55
2018-11-03T23:18:41.528Z,9.57
2018-11-03T23:21:10.504Z,9.57
2018-11-03T23:23:39.796Z,9.54
2018-11-03T23:26:08.951Z,9.55
2018-11-03T23:28:38.072Z,9.60
2018-11-03T23:31:07.361Z,9.62
2018-11-03T23:33:36.460Z,9.63
2018-11-03T23:36:05.601Z,9.64
2018-11-03T23:38:34.715Z,9.63
2018-11-03T23:41:03.866Z,9.60
2018-11-03T23:43:32.953Z,9.56
2018-11-03T23:46:02.098Z,9.53
2018-11-03T23:48:31.249Z,9.54
2018-11-03T23:51:00.455Z,9.50
2018-11-03T23:53:29.811Z,9.51
2018-11-03T23:55:59.068Z,9.46
2018-11-03T23:58:28.165Z,9.41
